Time;durP1;ratioP1;P1;durP2;ratioP2;P2;SDS_P1;SDS_P2;PMS_P1;PMS_P2;Temp;Humidity;BMP_temperature;BMP_pressure;BME280_temperature;BME280_humidity;BME280_pressure;Samples;Min_cycle;Max_cycle;Signal;HPM_P1;HPM_P2
2023/09/06 00:00:33;;;;;;;18.60;5.73;;;;;;;;;;5033276;28;20022;-64
2023/09/06 00:02:59;;;;;;;15.10;5.18;;;;;;;;;;5033648;28;20251;-65
2023/09/06 00:05:25;;;;;;;11.50;5.57;;;;;;;;;;5033332;28;20030;-64
2023/09/06 00:07:51;;;;;;;10.10;5.13;;;;;;;;;;5033329;28;20024;-65
2023/09/06 00:10:16;;;;;;;11.07;5.18;;;;;;;;;;5033276;28;20065;-65
2023/09/06 00:12:41;;;;;;;9.93;5.28;;;;;;;;;;5033293;28;20100;-65
2023/09/06 00:15:08;;;;;;;8.20;4.95;;;;;;;;;;5033272;28;20072;-65
2023/09/06 00:17:37;;;;;;;8.98;4.82;;;;;;;;;;5033304;28;20085;-64
2023/09/06 00:20:09;;;;;;;8.80;4.57;;;;;;;;;;5033261;28;20072;-64
2023/09/06 00:22:35;;;;;;;12.65;5.15;;;;;;;;;;5033057;28;20031;-65
2023/09/06 00:25:00;;;;;;;11.43;5.13;;;;;;;;;;5052844;28;20037;-65
2023/09/06 00:27:25;;;;;;;8.63;4.87;;;;;;;;;;5053019;28;20066;-65
2023/09/06 00:29:50;;;;;;;8.07;4.83;;;;;;;;;;5052974;28;20033;-64
2023/09/06 00:32:15;;;;;;;10.70;5.73;;;;;;;;;;5034822;28;20472;-64
2023/09/06 00:34:41;;;;;;;9.10;5.27;;;;;;;;;;5053020;28;20021;-64
2023/09/06 00:37:08;;;;;;;11.93;5.10;;;;;;;;;;5053260;28;20025;-64
2023/09/06 00:39:34;;;;;;;14.52;5.75;;;;;;;;;;5052991;28;20023;-64
2023/09/06 00:42:00;;;;;;;12.83;5.60;;;;;;;;;;5052931;28;20439;-64
2023/09/06 00:44:25;;;;;;;10.52;5.00;;;;;;;;;;5052764;28;20270;-64
2023/09/06 00:46:50;;;;;;;14.83;5.17;;;;;;;;;;5052922;28;20100;-65
2023/09/06 00:49:15;;;;;;;14.55;5.90;;;;;;;;;;5052835;28;20257;-64
2023/09/06 00:51:42;;;;;;;16.70;5.87;;;;;;;;;;5033249;28;20022;-64
2023/09/06 00:54:07;;;;;;;10.23;4.63;;;;;;;;;;5033093;28;20441;-64
2023/09/06 00:56:33;;;;;;;5.70;3.80;;;;;;;;;;5044402;28;20112;-64
2023/09/06 00:59:00;;;;;;;14.53;4.70;;;;;;;;;;5052805;28;20025;-64
2023/09/06 01:01:26;;;;;;;8.15;5.10;;;;;;;;;;5053014;28;20128;-64
2023/09/06 01:03:51;;;;;;;8.20;4.70;;;;;;;;;;5052771;28;20499;-64
2023/09/06 01:06:16;;;;;;;10.80;5.00;;;;;;;;;;5052696;28;20017;-64
2023/09/06 01:08:49;;;;;;;13.33;4.60;;;;;;;;;;5052705;28;20246;-64
2023/09/06 01:11:18;;;;;;;21.08;5.35;;;;;;;;;;5037708;28;20076;-65
2023/09/06 01:13:44;;;;;;;16.40;4.53;;;;;;;;;;5056328;28;20021;-64
2023/09/06 01:16:11;;;;;;;18.85;5.20;;;;;;;;;;5056366;28;20052;-65
2023/09/06 01:18:36;;;;;;;9.50;4.88;;;;;;;;;;5051909;28;20104;-64
2023/09/06 01:21:06;;;;;;;11.13;5.20;;;;;;;;;;5036373;28;20496;-71
2023/09/06 01:23:35;;;;;;;11.07;4.75;;;;;;;;;;5036308;28;20025;-71
2023/09/06 01:26:02;;;;;;;13.50;4.70;;;;;;;;;;5036208;28;20021;-71
2023/09/06 01:28:27;;;;;;;13.35;4.90;;;;;;;;;;5036127;28;20046;-71
2023/09/06 01:30:53;;;;;;;10.85;5.10;;;;;;;;;;5036016;28;20053;-71
2023/09/06 01:33:18;;;;;;;9.02;4.40;;;;;;;;;;5036067;28;20014;-72
2023/09/06 01:35:43;;;;;;;19.50;4.90;;;;;;;;;;5036337;28;20052;-71
2023/09/06 01:38:09;;;;;;;16.67;5.70;;;;;;;;;;5036054;28;20622;-71
2023/09/06 01:40:34;;;;;;;9.63;4.90;;;;;;;;;;5036013;28;20029;-71
2023/09/06 01:42:59;;;;;;;10.43;4.77;;;;;;;;;;5035985;28;20068;-71
2023/09/06 01:45:24;;;;;;;9.57;4.73;;;;;;;;;;5035782;28;20025;-71
2023/09/06 01:47:49;;;;;;;10.73;5.27;;;;;;;;;;5036153;28;20026;-71
2023/09/06 01:50:19;;;;;;;14.97;5.43;;;;;;;;;;5052636;28;20029;-71
2023/09/06 01:52:45;;;;;;;13.93;4.85;;;;;;;;;;5055950;28;20068;-71
2023/09/06 01:55:10;;;;;;;12.07;4.75;;;;;;;;;;5055650;28;20550;-71
2023/09/06 01:57:35;;;;;;;8.57;4.67;;;;;;;;;;5053858;28;20021;-71
2023/09/06 02:00:00;;;;;;;12.53;5.33;;;;;;;;;;5055579;28;20246;-70
2023/09/06 02:02:25;;;;;;;10.02;5.38;;;;;;;;;;5055580;28;20373;-70
2023/09/06 02:04:51;;;;;;;16.17;5.38;;;;;;;;;;5055635;28;20025;-70
2023/09/06 02:07:16;;;;;;;9.87;4.93;;;;;;;;;;5055377;28;20021;-70
2023/09/06 02:09:41;;;;;;;9.87;5.00;;;;;;;;;;5055333;28;20021;-71
2023/09/06 02:12:07;;;;;;;11.23;5.43;;;;;;;;;;5055303;28;20017;-70
2023/09/06 02:14:32;;;;;;;7.55;4.63;;;;;;;;;;5055265;28;20048;-71
2023/09/06 02:16:57;;;;;;;14.50;4.93;;;;;;;;;;5055202;28;20090;-70
2023/09/06 02:19:22;;;;;;;10.98;5.18;;;;;;;;;;5042257;28;20267;-71
2023/09/06 02:21:48;;;;;;;9.67;4.33;;;;;;;;;;5034445;28;20078;-71
2023/09/06 02:24:13;;;;;;;7.67;4.43;;;;;;;;;;5035120;28;20034;-71
2023/09/06 02:26:38;;;;;;;11.53;4.50;;;;;;;;;;5035097;28;20079;-71
2023/09/06 02:29:04;;;;;;;8.40;4.63;;;;;;;;;;5035015;28;20017;-71
2023/09/06 02:31:29;;;;;;;12.48;5.72;;;;;;;;;;5034825;28;20049;-71
2023/09/06 02:33:55;;;;;;;12.13;5.90;;;;;;;;;;5035025;28;20104;-71
2023/09/06 02:36:20;;;;;;;10.63;5.07;;;;;;;;;;5035213;28;20030;-71
2023/09/06 02:38:46;;;;;;;10.47;4.93;;;;;;;;;;5034872;28;20164;-71
2023/09/06 02:41:11;;;;;;;9.27;4.50;;;;;;;;;;5034895;28;20275;-64
2023/09/06 02:43:37;;;;;;;10.83;4.47;;;;;;;;;;5034811;28;20418;-64
2023/09/06 02:46:03;;;;;;;7.50;4.35;;;;;;;;;;5034904;28;20018;-64
2023/09/06 02:48:29;;;;;;;9.48;4.50;;;;;;;;;;5039209;28;20028;-64
2023/09/06 02:50:54;;;;;;;15.50;4.53;;;;;;;;;;5054808;28;20029;-64
2023/09/06 02:53:22;;;;;;;10.27;4.60;;;;;;;;;;5054479;28;20056;-64
2023/09/06 02:55:53;;;;;;;11.18;5.03;;;;;;;;;;5054461;28;20029;-64
2023/09/06 02:58:24;;;;;;;8.60;4.15;;;;;;;;;;5054092;28;20112;-64
2023/09/06 03:00:57;;;;;;;9.55;4.45;;;;;;;;;;5054299;28;20025;-64
2023/09/06 03:03:22;;;;;;;8.35;3.80;;;;;;;;;;5054593;28;20446;-64
2023/09/06 03:05:47;;;;;;;6.13;3.67;;;;;;;;;;5054171;28;20055;-64
2023/09/06 03:08:13;;;;;;;7.33;3.80;;;;;;;;;;5054261;28;20729;-64
2023/09/06 03:10:39;;;;;;;8.52;3.92;;;;;;;;;;5054169;28;20025;-64
2023/09/06 03:13:05;;;;;;;10.25;3.92;;;;;;;;;;5054161;28;20103;-64
2023/09/06 03:15:30;;;;;;;8.90;4.72;;;;;;;;;;5054114;28;20013;-64
2023/09/06 03:17:58;;;;;;;11.27;5.03;;;;;;;;;;5051081;28;20492;-64
2023/09/06 03:20:33;;;;;;;6.95;3.95;;;;;;;;;;5034001;28;20266;-64
2023/09/06 03:23:00;;;;;;;12.02;4.47;;;;;;;;;;5034031;28;20017;-64
2023/09/06 03:25:26;;;;;;;13.93;4.40;;;;;;;;;;5033930;28;20018;-64
2023/09/06 03:27:57;;;;;;;6.65;3.75;;;;;;;;;;5034243;28;20032;-64
2023/09/06 03:30:25;;;;;;;12.13;3.83;;;;;;;;;;5033807;28;20499;-64
2023/09/06 03:32:51;;;;;;;7.38;3.58;;;;;;;;;;5033901;28;20107;-64
2023/09/06 03:35:17;;;;;;;6.90;3.28;;;;;;;;;;5034110;28;20025;-64
2023/09/06 03:37:43;;;;;;;6.97;3.88;;;;;;;;;;5034048;28;20064;-64
2023/09/06 03:40:25;;;;;;;8.88;4.03;;;;;;;;;;5033975;28;20025;-64
2023/09/06 03:42:50;;;;;;;9.60;4.20;;;;;;;;;;5051525;28;20029;-64
2023/09/06 03:45:21;;;;;;;6.22;3.72;;;;;;;;;;5053482;28;20032;-64
2023/09/06 03:47:46;;;;;;;12.48;4.47;;;;;;;;;;5053778;28;20017;-64
2023/09/06 03:50:12;;;;;;;10.73;4.97;;;;;;;;;;5053631;28;20021;-64
2023/09/06 03:52:39;;;;;;;10.30;4.03;;;;;;;;;;5053683;28;20714;-64
2023/09/06 03:55:05;;;;;;;8.63;4.32;;;;;;;;;;5043489;28;20040;-64
2023/09/06 03:57:31;;;;;;;6.50;3.78;;;;;;;;;;5033757;28;20376;-64
2023/09/06 03:59:58;;;;;;;6.97;3.90;;;;;;;;;;5033366;28;20025;-64
2023/09/06 04:02:27;;;;;;;8.07;3.85;;;;;;;;;;5034296;28;20044;-64
2023/09/06 04:04:52;;;;;;;7.45;4.05;;;;;;;;;;5053298;28;20074;-64
2023/09/06 04:07:18;;;;;;;10.80;4.30;;;;;;;;;;5053172;28;20411;-64
2023/09/06 04:09:43;;;;;;;6.23;3.43;;;;;;;;;;5053305;28;20021;-64
2023/09/06 04:12:08;;;;;;;10.60;4.40;;;;;;;;;;5053293;28;20021;-64
2023/09/06 04:14:38;;;;;;;6.97;4.07;;;;;;;;;;5053207;28;20365;-64
2023/09/06 04:17:07;;;;;;;8.80;3.97;;;;;;;;;;5053437;28;20185;-65
2023/09/06 04:19:33;;;;;;;7.93;3.67;;;;;;;;;;5053065;28;20025;-64
2023/09/06 04:21:59;;;;;;;7.35;4.00;;;;;;;;;;5053089;28;20025;-64
2023/09/06 04:24:24;;;;;;;9.25;4.20;;;;;;;;;;5053052;28;20021;-64
2023/09/06 04:26:49;;;;;;;5.67;3.23;;;;;;;;;;5053094;28;20055;-64
2023/09/06 04:29:14;;;;;;;5.23;3.60;;;;;;;;;;5053188;28;20700;-64
2023/09/06 04:31:41;;;;;;;8.00;2.90;;;;;;;;;;5052927;28;20077;-64
2023/09/06 04:34:06;;;;;;;6.90;3.75;;;;;;;;;;5037951;28;20112;-64
2023/09/06 04:36:31;;;;;;;5.57;3.00;;;;;;;;;;5031473;28;20045;-64
2023/09/06 04:38:58;;;;;;;5.97;3.30;;;;;;;;;;5032238;28;20416;-65
2023/09/06 04:41:23;;;;;;;5.53;3.05;;;;;;;;;;5031991;28;20580;-64
2023/09/06 04:43:48;;;;;;;6.85;3.60;;;;;;;;;;5032589;28;20013;-64
2023/09/06 04:46:13;;;;;;;8.20;3.43;;;;;;;;;;5035556;28;20090;-64
2023/09/06 04:48:39;;;;;;;4.63;2.78;;;;;;;;;;5031281;28;20377;-64
2023/09/06 04:51:05;;;;;;;4.47;2.65;;;;;;;;;;5036405;28;20029;-66
2023/09/06 04:53:30;;;;;;;8.68;3.55;;;;;;;;;;5036120;28;20488;-65
2023/09/06 04:55:55;;;;;;;6.88;3.58;;;;;;;;;;5036158;28;20026;-65
2023/09/06 04:58:20;;;;;;;6.00;3.07;;;;;;;;;;5036240;28;20030;-66
2023/09/06 05:00:47;;;;;;;6.33;3.33;;;;;;;;;;5036161;28;20397;-66
2023/09/06 05:03:13;;;;;;;5.28;3.03;;;;;;;;;;5035309;28;20262;-67
2023/09/06 05:05:39;;;;;;;5.20;2.92;;;;;;;;;;5035967;28;20036;-66
2023/09/06 05:08:04;;;;;;;8.27;3.80;;;;;;;;;;5036411;28;20087;-66
2023/09/06 05:10:30;;;;;;;6.07;3.17;;;;;;;;;;5036426;28;20477;-66
2023/09/06 05:12:55;;;;;;;11.75;4.03;;;;;;;;;;5036098;28;20021;-66
2023/09/06 05:15:20;;;;;;;6.67;3.20;;;;;;;;;;5035973;28;20021;-66
2023/09/06 05:17:46;;;;;;;5.55;3.35;;;;;;;;;;5035500;28;20427;-66
2023/09/06 05:20:27;;;;;;;8.20;3.80;;;;;;;;;;5035901;28;20104;-66
2023/09/06 05:22:56;;;;;;;7.00;3.17;;;;;;;;;;5035986;28;20021;-66
2023/09/06 05:25:22;;;;;;;6.38;3.45;;;;;;;;;;5035796;28;20026;-66
2023/09/06 05:27:48;;;;;;;6.18;3.38;;;;;;;;;;5036084;28;20028;-66
2023/09/06 05:30:14;;;;;;;6.13;3.60;;;;;;;;;;5035451;28;20053;-66
2023/09/06 05:32:39;;;;;;;5.90;3.28;;;;;;;;;;5035130;28;20029;-66
2023/09/06 05:35:05;;;;;;;5.03;2.92;;;;;;;;;;5035528;28;20048;-66
2023/09/06 05:37:30;;;;;;;4.18;2.50;;;;;;;;;;5035577;28;20025;-66
2023/09/06 05:39:55;;;;;;;4.45;2.80;;;;;;;;;;5035900;28;20021;-66
2023/09/06 05:42:20;;;;;;;5.03;2.33;;;;;;;;;;5035456;28;20030;-66
2023/09/06 05:44:46;;;;;;;4.38;2.67;;;;;;;;;;5035417;28;20273;-68
2023/09/06 05:47:11;;;;;;;4.63;2.83;;;;;;;;;;5034871;28;20017;-69
2023/09/06 05:49:36;;;;;;;3.73;2.70;;;;;;;;;;5035403;28;20018;-71
2023/09/06 05:52:02;;;;;;;5.43;3.10;;;;;;;;;;5035447;28;20255;-70
2023/09/06 05:54:27;;;;;;;7.03;3.22;;;;;;;;;;5035217;28;20022;-70
2023/09/06 05:56:52;;;;;;;6.20;2.90;;;;;;;;;;5034195;28;20089;-70
2023/09/06 05:59:19;;;;;;;4.70;2.50;;;;;;;;;;5033953;28;20033;-70
2023/09/06 06:01:44;;;;;;;6.68;3.10;;;;;;;;;;5034970;28;20028;-70
2023/09/06 06:04:11;;;;;;;4.20;3.00;;;;;;;;;;5034339;28;20033;-70
2023/09/06 06:06:36;;;;;;;5.18;3.00;;;;;;;;;;5035478;28;20025;-70
2023/09/06 06:09:02;;;;;;;6.23;3.27;;;;;;;;;;5035162;28;20151;-71
2023/09/06 06:11:27;;;;;;;5.47;3.08;;;;;;;;;;5035210;28;20251;-70
2023/09/06 06:13:53;;;;;;;7.03;3.30;;;;;;;;;;5035042;28;20014;-70
2023/09/06 06:16:18;;;;;;;5.60;3.27;;;;;;;;;;5034894;28;20242;-70
2023/09/06 06:18:44;;;;;;;6.00;3.50;;;;;;;;;;5034341;28;20500;-71
2023/09/06 06:21:10;;;;;;;13.07;4.10;;;;;;;;;;5035040;28;20495;-70
2023/09/06 06:23:36;;;;;;;7.93;3.60;;;;;;;;;;5035097;28;20022;-70
2023/09/06 06:26:01;;;;;;;8.63;3.93;;;;;;;;;;5034761;28;20026;-70
2023/09/06 06:28:26;;;;;;;7.27;3.70;;;;;;;;;;5034619;28;20365;-71
2023/09/06 06:30:51;;;;;;;6.97;3.57;;;;;;;;;;5034543;28;20042;-71
2023/09/06 06:33:16;;;;;;;8.07;3.70;;;;;;;;;;5033886;28;20734;-71
2023/09/06 06:35:42;;;;;;;6.53;3.53;;;;;;;;;;5034540;28;20021;-71
2023/09/06 06:38:07;;;;;;;6.80;3.75;;;;;;;;;;5034503;28;20022;-71
2023/09/06 06:40:36;;;;;;;6.88;3.78;;;;;;;;;;5034705;28;20032;-71
2023/09/06 06:43:01;;;;;;;13.23;3.95;;;;;;;;;;5034755;28;20045;-71
2023/09/06 06:45:27;;;;;;;7.27;4.10;;;;;;;;;;5034448;28;20495;-71
2023/09/06 06:47:52;;;;;;;8.27;3.40;;;;;;;;;;5033873;28;20049;-71
2023/09/06 06:50:17;;;;;;;6.63;3.88;;;;;;;;;;5034063;28;20028;-71
2023/09/06 06:52:44;;;;;;;9.65;3.50;;;;;;;;;;5034556;28;20100;-71
2023/09/06 06:55:10;;;;;;;14.02;4.40;;;;;;;;;;5034057;28;20036;-71
2023/09/06 06:57:35;;;;;;;9.07;3.78;;;;;;;;;;5033914;28;20026;-71
2023/09/06 07:00:01;;;;;;;8.60;3.85;;;;;;;;;;5034062;28;20021;-72
2023/09/06 07:02:26;;;;;;;9.25;4.57;;;;;;;;;;5033395;28;20025;-71
2023/09/06 07:04:51;;;;;;;10.87;3.80;;;;;;;;;;5033873;28;20057;-72
2023/09/06 07:07:17;;;;;;;9.50;3.53;;;;;;;;;;5033852;28;20158;-72
2023/09/06 07:09:42;;;;;;;6.70;4.23;;;;;;;;;;5033709;28;20028;-72
2023/09/06 07:12:07;;;;;;;10.50;3.77;;;;;;;;;;5033856;28;20018;-72
2023/09/06 07:14:32;;;;;;;8.20;3.67;;;;;;;;;;5033770;28;20246;-68
2023/09/06 07:16:58;;;;;;;8.83;3.60;;;;;;;;;;5033217;28;20022;-68
2023/09/06 07:19:24;;;;;;;13.32;4.68;;;;;;;;;;5033710;28;20021;-69
2023/09/06 07:21:49;;;;;;;6.67;4.13;;;;;;;;;;5033736;28;20032;-76
2023/09/06 07:24:14;;;;;;;10.83;3.83;;;;;;;;;;5033485;28;20263;-73
2023/09/06 07:26:40;;;;;;;10.82;4.15;;;;;;;;;;5033907;28;20082;-73
2023/09/06 07:29:05;;;;;;;14.50;4.40;;;;;;;;;;5033499;28;20373;-75
2023/09/06 07:31:30;;;;;;;8.50;4.30;;;;;;;;;;5032599;28;20080;-76
2023/09/06 07:33:55;;;;;;;6.23;3.97;;;;;;;;;;5033021;28;20053;-73
2023/09/06 07:36:21;;;;;;;10.27;3.77;;;;;;;;;;5033479;28;20064;-73
2023/09/06 07:38:46;;;;;;;9.57;5.30;;;;;;;;;;5033931;28;20251;-73
2023/09/06 07:41:12;;;;;;;11.57;4.20;;;;;;;;;;5033345;28;20489;-74
2023/09/06 07:43:37;;;;;;;8.98;5.00;;;;;;;;;;5033422;28;20022;-74
2023/09/06 07:46:03;;;;;;;10.45;5.22;;;;;;;;;;5015014;28;20132;-74
2023/09/06 07:48:29;;;;;;;10.13;4.65;;;;;;;;;;5033210;28;20489;-74
2023/09/06 07:50:55;;;;;;;8.90;5.10;;;;;;;;;;5033256;28;20021;-75
2023/09/06 07:53:21;;;;;;;9.05;5.07;;;;;;;;;;5033177;28;20072;-73
2023/09/06 07:55:46;;;;;;;11.88;5.25;;;;;;;;;;5033166;28;20473;-74
2023/09/06 07:58:15;;;;;;;9.82;4.50;;;;;;;;;;5032872;28;20021;-72
2023/09/06 08:00:41;;;;;;;9.30;5.53;;;;;;;;;;5032668;28;20068;-74
2023/09/06 08:03:06;;;;;;;9.60;4.90;;;;;;;;;;5033072;28;20052;-74
2023/09/06 08:05:32;;;;;;;7.20;4.55;;;;;;;;;;5032774;28;20051;-73
2023/09/06 08:07:58;;;;;;;7.65;4.40;;;;;;;;;;5033059;28;20080;-74
2023/09/06 08:10:23;;;;;;;12.68;5.57;;;;;;;;;;5032959;28;20068;-74
2023/09/06 08:12:48;;;;;;;10.27;4.43;;;;;;;;;;5032960;28;20013;-64
2023/09/06 08:15:14;;;;;;;7.20;4.23;;;;;;;;;;5032645;28;20037;-67
2023/09/06 08:17:39;;;;;;;8.63;4.78;;;;;;;;;;5032415;28;20017;-66
2023/09/06 08:20:08;;;;;;;9.90;4.63;;;;;;;;;;5032405;28;20029;-66
2023/09/06 08:22:35;;;;;;;9.27;4.78;;;;;;;;;;5033411;28;20128;-66
2023/09/06 08:25:00;;;;;;;10.60;5.40;;;;;;;;;;5032987;28;20025;-66
2023/09/06 08:27:26;;;;;;;13.27;4.40;;;;;;;;;;5032465;28;20025;-66
2023/09/06 08:29:51;;;;;;;7.27;4.70;;;;;;;;;;5032663;28;20405;-68
2023/09/06 08:32:16;;;;;;;8.17;4.63;;;;;;;;;;5032315;28;20018;-68
2023/09/06 08:34:41;;;;;;;6.67;4.33;;;;;;;;;;5044812;28;20028;-68
2023/09/06 08:37:07;;;;;;;8.47;4.37;;;;;;;;;;5053045;28;20029;-67
2023/09/06 08:39:32;;;;;;;9.75;4.25;;;;;;;;;;5053264;28;20024;-68
2023/09/06 08:41:57;;;;;;;8.53;4.37;;;;;;;;;;5053179;28;20473;-68
2023/09/06 08:44:23;;;;;;;9.97;4.60;;;;;;;;;;5052903;28;20028;-67
2023/09/06 08:46:52;;;;;;;9.27;4.18;;;;;;;;;;5052908;28;20025;-67
2023/09/06 08:49:17;;;;;;;12.25;4.63;;;;;;;;;;5052840;28;20024;-67
2023/09/06 08:51:43;;;;;;;9.98;4.57;;;;;;;;;;5052874;28;20029;-67
2023/09/06 08:54:08;;;;;;;11.32;4.43;;;;;;;;;;5053097;28;20014;-67
2023/09/06 08:56:34;;;;;;;7.90;4.63;;;;;;;;;;5052813;28;20017;-67
2023/09/06 08:58:59;;;;;;;8.40;4.40;;;;;;;;;;5052171;28;20477;-67
2023/09/06 09:01:25;;;;;;;7.97;4.90;;;;;;;;;;5052884;28;20025;-67
2023/09/06 09:03:50;;;;;;;11.23;4.50;;;;;;;;;;5052789;28;20238;-67
2023/09/06 09:06:16;;;;;;;10.18;4.63;;;;;;;;;;5052617;28;20094;-67
2023/09/06 09:08:41;;;;;;;8.20;4.50;;;;;;;;;;5052819;28;20419;-67
2023/09/06 09:11:07;;;;;;;7.00;4.30;;;;;;;;;;5052692;28;20476;-67
2023/09/06 09:13:32;;;;;;;7.53;4.15;;;;;;;;;;5052668;28;20009;-67
2023/09/06 09:15:57;;;;;;;14.53;4.10;;;;;;;;;;5052633;28;20024;-67
2023/09/06 09:18:22;;;;;;;8.10;4.37;;;;;;;;;;5052702;28;20021;-66
2023/09/06 09:20:48;;;;;;;9.67;4.60;;;;;;;;;;5052632;28;20032;-66
2023/09/06 09:23:16;;;;;;;10.63;4.25;;;;;;;;;;5052635;28;20044;-67
2023/09/06 09:25:48;;;;;;;7.82;4.18;;;;;;;;;;5052721;28;20473;-67
2023/09/06 09:28:14;;;;;;;10.20;4.20;;;;;;;;;;5040450;28;20157;-67
2023/09/06 09:30:39;;;;;;;7.57;4.38;;;;;;;;;;5032507;28;20073;-67
2023/09/06 09:33:05;;;;;;;9.87;4.77;;;;;;;;;;5036191;28;20022;-67
2023/09/06 09:35:31;;;;;;;7.70;3.90;;;;;;;;;;5036137;28;20033;-67
2023/09/06 09:37:56;;;;;;;6.07;3.75;;;;;;;;;;5036192;28;20253;-67
2023/09/06 09:40:22;;;;;;;7.35;4.10;;;;;;;;;;5036377;28;20025;-66
2023/09/06 09:42:57;;;;;;;8.73;4.95;;;;;;;;;;5036236;28;20052;-66
2023/09/06 09:45:24;;;;;;;7.10;4.18;;;;;;;;;;5035849;28;20029;-66
2023/09/06 09:47:50;;;;;;;6.97;4.25;;;;;;;;;;5035875;28;20139;-66
2023/09/06 09:50:16;;;;;;;10.68;4.40;;;;;;;;;;5036104;28;20026;-66
2023/09/06 09:52:43;;;;;;;10.50;4.80;;;;;;;;;;5035825;28;20018;-66
2023/09/06 09:55:10;;;;;;;8.00;4.18;;;;;;;;;;5035751;28;20052;-66
2023/09/06 09:57:36;;;;;;;6.50;4.07;;;;;;;;;;5041944;28;20377;-66
2023/09/06 10:00:03;;;;;;;6.82;3.92;;;;;;;;;;5055304;28;20032;-66
2023/09/06 10:02:30;;;;;;;5.43;3.83;;;;;;;;;;5055572;28;20029;-66
2023/09/06 10:04:57;;;;;;;6.28;4.10;;;;;;;;;;5055408;28;20024;-66
2023/09/06 10:07:22;;;;;;;8.57;3.92;;;;;;;;;;5055547;28;20009;-66
2023/09/06 10:09:47;;;;;;;8.95;4.10;;;;;;;;;;5054750;28;20487;-66
2023/09/06 10:12:13;;;;;;;10.35;4.50;;;;;;;;;;5055599;28;20025;-66
2023/09/06 10:14:39;;;;;;;6.78;4.38;;;;;;;;;;5055320;28;20021;-66
2023/09/06 10:17:05;;;;;;;6.38;3.80;;;;;;;;;;5055262;28;20029;-66
2023/09/06 10:19:30;;;;;;;7.57;4.22;;;;;;;;;;5055485;28;20492;-66
2023/09/06 10:21:56;;;;;;;6.70;4.00;;;;;;;;;;5055145;28;20021;-66
2023/09/06 10:24:22;;;;;;;7.57;3.97;;;;;;;;;;5055088;28;20021;-65
2023/09/06 10:26:48;;;;;;;7.68;3.60;;;;;;;;;;5055352;28;20025;-66
2023/09/06 10:29:17;;;;;;;8.57;3.80;;;;;;;;;;5036305;28;20010;-66
2023/09/06 10:31:49;;;;;;;5.15;3.40;;;;;;;;;;5034923;28;20050;-66
2023/09/06 10:34:15;;;;;;;10.18;4.03;;;;;;;;;;5035043;28;20465;-66
2023/09/06 10:37:00;;;;;;;5.82;3.80;;;;;;;;;;5035252;28;20033;-65
2023/09/06 10:39:27;;;;;;;6.78;4.07;;;;;;;;;;5017200;28;20025;-66
2023/09/06 10:42:13;;;;;;;5.82;3.83;;;;;;;;;;5044985;28;20025;-66
2023/09/06 10:44:53;;;;;;;6.32;4.03;;;;;;;;;;5024913;28;20052;-66
2023/09/06 10:47:25;;;;;;;7.53;4.00;;;;;;;;;;5034027;28;20028;-65
2023/09/06 10:50:20;;;;;;;7.25;3.95;;;;;;;;;;5048822;28;20456;-65
2023/09/06 10:52:46;;;;;;;8.15;3.55;;;;;;;;;;5035890;28;20048;-65
2023/09/06 10:55:13;;;;;;;8.30;3.88;;;;;;;;;;5033808;28;20083;-65
2023/09/06 10:57:47;;;;;;;8.00;3.45;;;;;;;;;;5034454;28;20084;-65
2023/09/06 11:00:18;;;;;;;6.32;3.88;;;;;;;;;;5035399;28;20025;-65
2023/09/06 11:02:44;;;;;;;5.00;3.78;;;;;;;;;;5034439;28;20389;-65
2023/09/06 11:05:11;;;;;;;5.38;3.70;;;;;;;;;;5040832;28;20025;-65
2023/09/06 11:07:40;;;;;;;7.38;4.20;;;;;;;;;;5054244;28;20522;-65
2023/09/06 11:10:06;;;;;;;7.22;3.65;;;;;;;;;;5053500;28;20025;-65
2023/09/06 11:12:32;;;;;;;8.55;3.97;;;;;;;;;;5046457;28;20384;-65
2023/09/06 11:14:57;;;;;;;6.63;3.78;;;;;;;;;;5034090;28;20033;-65
2023/09/06 11:17:23;;;;;;;6.47;3.73;;;;;;;;;;5033764;28;20465;-65
2023/09/06 11:19:48;;;;;;;5.38;3.53;;;;;;;;;;5033819;28;20424;-65
2023/09/06 11:22:14;;;;;;;7.47;4.13;;;;;;;;;;5033345;28;20435;-65
2023/09/06 11:24:39;;;;;;;7.50;3.90;;;;;;;;;;5033007;28;20529;-65
2023/09/06 11:27:17;;;;;;;5.60;3.40;;;;;;;;;;5033599;28;20048;-65
2023/09/06 11:29:43;;;;;;;8.80;3.40;;;;;;;;;;5033200;28;20041;-65
2023/09/06 11:32:12;;;;;;;7.65;3.90;;;;;;;;;;5037950;28;20033;-65
2023/09/06 11:34:46;;;;;;;5.20;3.30;;;;;;;;;;5053545;28;20024;-65
2023/09/06 11:37:13;;;;;;;6.30;3.97;;;;;;;;;;5026275;28;20017;-65
2023/09/06 11:39:41;;;;;;;7.07;3.80;;;;;;;;;;5032588;28;20047;-65
2023/09/06 11:42:10;;;;;;;5.00;3.47;;;;;;;;;;5032901;28;20028;-65
2023/09/06 11:44:39;;;;;;;5.43;3.45;;;;;;;;;;5033240;28;20463;-65
2023/09/06 11:47:06;;;;;;;6.60;3.65;;;;;;;;;;5033363;28;20486;-65
2023/09/06 11:49:33;;;;;;;6.03;3.90;;;;;;;;;;5032703;28;20056;-65
2023/09/06 11:52:00;;;;;;;6.75;3.92;;;;;;;;;;5033076;28;20020;-65
2023/09/06 11:54:26;;;;;;;8.02;3.40;;;;;;;;;;5025756;28;20057;-65
2023/09/06 11:56:52;;;;;;;5.78;3.60;;;;;;;;;;5031444;28;20037;-65
2023/09/06 11:59:17;;;;;;;8.67;4.10;;;;;;;;;;5033079;28;20412;-65
2023/09/06 12:01:44;;;;;;;6.38;3.60;;;;;;;;;;5032940;28;20500;-65
2023/09/06 12:04:16;;;;;;;6.78;3.63;;;;;;;;;;5013223;28;20021;-65
2023/09/06 12:06:41;;;;;;;7.15;3.70;;;;;;;;;;5029302;28;20018;-65
2023/09/06 12:09:12;;;;;;;5.82;3.20;;;;;;;;;;5032291;28;20359;-65
2023/09/06 12:11:37;;;;;;;5.28;2.78;;;;;;;;;;5032894;28;20067;-65
2023/09/06 12:14:03;;;;;;;10.98;3.83;;;;;;;;;;5030647;28;20017;-65
2023/09/06 12:16:28;;;;;;;5.33;3.57;;;;;;;;;;5032529;28;20056;-65
2023/09/06 12:18:55;;;;;;;5.83;3.87;;;;;;;;;;5032889;28;20658;-65
2023/09/06 12:21:21;;;;;;;7.32;3.33;;;;;;;;;;5032648;28;20025;-65
2023/09/06 12:23:47;;;;;;;6.97;3.42;;;;;;;;;;5032315;28;20026;-65
2023/09/06 12:26:15;;;;;;;6.72;3.17;;;;;;;;;;5032640;28;20087;-65
2023/09/06 12:28:40;;;;;;;6.93;3.33;;;;;;;;;;5032918;28;20477;-65
2023/09/06 12:31:05;;;;;;;7.28;3.88;;;;;;;;;;5032234;28;20088;-65
2023/09/06 12:33:31;;;;;;;5.35;3.08;;;;;;;;;;5044714;28;20017;-64
2023/09/06 12:35:59;;;;;;;5.38;3.45;;;;;;;;;;5047365;28;20469;-65
2023/09/06 12:38:29;;;;;;;4.82;3.40;;;;;;;;;;5032050;28;20037;-65
2023/09/06 12:40:54;;;;;;;5.68;3.17;;;;;;;;;;5032575;28;20013;-65
2023/09/06 12:43:21;;;;;;;5.13;3.53;;;;;;;;;;5032134;28;20527;-64
2023/09/06 12:45:47;;;;;;;6.47;3.47;;;;;;;;;;5032348;28;20038;-65
2023/09/06 12:48:13;;;;;;;7.88;3.58;;;;;;;;;;5025128;28;20064;-65
2023/09/06 12:50:38;;;;;;;5.30;3.30;;;;;;;;;;5014608;28;20053;-65
2023/09/06 12:53:04;;;;;;;8.30;3.77;;;;;;;;;;5032159;28;20017;-65
2023/09/06 12:55:30;;;;;;;5.55;3.60;;;;;;;;;;5032492;28;20380;-65
2023/09/06 12:57:58;;;;;;;5.22;3.40;;;;;;;;;;5032806;28;20132;-65
2023/09/06 13:00:24;;;;;;;5.22;3.33;;;;;;;;;;5032109;28;20469;-65
2023/09/06 13:02:49;;;;;;;7.00;3.75;;;;;;;;;;5037861;28;20027;-65
2023/09/06 13:05:19;;;;;;;6.80;3.42;;;;;;;;;;5052443;28;20064;-65
2023/09/06 13:07:45;;;;;;;9.68;3.55;;;;;;;;;;5042100;28;20030;-65
2023/09/06 13:10:10;;;;;;;6.28;3.38;;;;;;;;;;5035931;28;20106;-66
2023/09/06 13:12:35;;;;;;;5.97;3.87;;;;;;;;;;5035985;28;20532;-66
2023/09/06 13:15:00;;;;;;;6.23;3.50;;;;;;;;;;5036321;28;20017;-66
2023/09/06 13:17:26;;;;;;;5.90;3.60;;;;;;;;;;5035674;28;20266;-66
2023/09/06 13:19:51;;;;;;;5.10;3.20;;;;;;;;;;5036050;28;20381;-66
2023/09/06 13:22:16;;;;;;;6.00;3.30;;;;;;;;;;5035406;28;20036;-66
2023/09/06 13:24:42;;;;;;;5.03;3.70;;;;;;;;;;5035755;28;20014;-66
2023/09/06 13:27:07;;;;;;;6.32;3.30;;;;;;;;;;5035755;28;20021;-66
2023/09/06 13:29:35;;;;;;;6.10;3.47;;;;;;;;;;5035466;28;20057;-66
2023/09/06 13:32:01;;;;;;;5.78;3.25;;;;;;;;;;5035515;28;20749;-66
2023/09/06 13:34:27;;;;;;;6.63;3.53;;;;;;;;;;5053406;28;20024;-66
2023/09/06 13:36:52;;;;;;;8.15;4.18;;;;;;;;;;5045181;28;20040;-66
2023/09/06 13:39:17;;;;;;;6.60;3.55;;;;;;;;;;5035315;28;20425;-66
2023/09/06 13:41:43;;;;;;;7.00;3.67;;;;;;;;;;5035499;28;20021;-66
2023/09/06 13:44:08;;;;;;;5.18;3.33;;;;;;;;;;5035486;28;20021;-66
2023/09/06 13:46:33;;;;;;;5.85;3.38;;;;;;;;;;5035334;28;20028;-66
2023/09/06 13:49:00;;;;;;;6.93;4.00;;;;;;;;;;5035375;28;20033;-66
2023/09/06 13:51:26;;;;;;;9.02;3.45;;;;;;;;;;5035103;28;20049;-66
2023/09/06 13:53:52;;;;;;;7.60;3.40;;;;;;;;;;5034727;28;20025;-66
2023/09/06 13:56:18;;;;;;;7.55;4.03;;;;;;;;;;5034642;28;20083;-66
2023/09/06 13:58:43;;;;;;;7.35;3.35;;;;;;;;;;5035215;28;20083;-66
2023/09/06 14:01:08;;;;;;;5.53;3.57;;;;;;;;;;5035124;28;20029;-66
2023/09/06 14:03:33;;;;;;;6.45;3.53;;;;;;;;;;5037853;28;20024;-66
2023/09/06 14:05:58;;;;;;;10.27;4.03;;;;;;;;;;5055368;28;20501;-66
2023/09/06 14:08:24;;;;;;;6.10;3.87;;;;;;;;;;5036419;28;20025;-66
2023/09/06 14:10:52;;;;;;;8.27;3.43;;;;;;;;;;5034937;28;20025;-66
2023/09/06 14:13:18;;;;;;;9.60;3.80;;;;;;;;;;5034767;28;20022;-66
2023/09/06 14:15:43;;;;;;;11.50;3.65;;;;;;;;;;5034244;28;20370;-66
2023/09/06 14:18:08;;;;;;;7.90;3.93;;;;;;;;;;5033351;28;20493;-66
2023/09/06 14:20:36;;;;;;;6.20;3.75;;;;;;;;;;5034586;28;20025;-65
2023/09/06 14:23:01;;;;;;;9.55;4.03;;;;;;;;;;5034180;28;20030;-65
2023/09/06 14:25:26;;;;;;;6.23;3.73;;;;;;;;;;5034496;28;20734;-65
2023/09/06 14:27:52;;;;;;;5.60;3.88;;;;;;;;;;5034668;28;20337;-65
2023/09/06 14:30:17;;;;;;;5.93;3.58;;;;;;;;;;5034221;28;20049;-65
2023/09/06 14:32:42;;;;;;;8.20;3.90;;;;;;;;;;5034734;28;20114;-64
2023/09/06 14:35:07;;;;;;;7.50;3.83;;;;;;;;;;5049860;28;20525;-65